createdAt,value
2018-07-11T00:00:02.207Z,0
2018-07-11T00:01:12.244Z,0
2018-07-11T00:02:22.009Z,0
2018-07-11T00:03:32.027Z,0
2018-07-11T00:04:42.042Z,0
2018-07-11T00:05:52.041Z,0
2018-07-11T00:07:02.052Z,0
2018-07-11T00:08:11.824Z,0
2018-07-11T00:09:21.573Z,0
2018-07-11T00:10:31.327Z,0
2018-07-11T00:11:41.415Z,0
2018-07-11T00:12:51.457Z,0
2018-07-11T00:14:01.473Z,0
2018-07-11T00:15:11.576Z,0
2018-07-11T00:16:21.347Z,0
2018-07-11T00:17:31.106Z,0
2018-07-11T00:18:41.108Z,0
2018-07-11T00:19:51.148Z,0
2018-07-11T00:21:01.153Z,0
2018-07-11T00:22:10.928Z,0
2018-07-11T00:23:20.934Z,0
2018-07-11T00:24:30.695Z,0
2018-07-11T00:25:40.524Z,0
2018-07-11T00:26:50.531Z,0
2018-07-11T00:28:00.521Z,0
2018-07-11T00:29:10.540Z,0
2018-07-11T00:30:20.110Z,0
2018-07-11T00:31:30.128Z,0
2018-07-11T00:32:40.140Z,0
2018-07-11T00:33:50.141Z,0
2018-07-11T00:35:00.163Z,0
2018-07-11T00:36:10.307Z,0
2018-07-11T00:37:20.881Z,0
2018-07-11T00:38:30.989Z,0
2018-07-11T00:39:40.993Z,0
2018-07-11T00:40:51.032Z,0
2018-07-11T00:42:00.794Z,0
2018-07-11T00:43:10.812Z,0
2018-07-11T00:44:20.821Z,0
2018-07-11T00:45:30.840Z,0
2018-07-11T00:46:40.842Z,0
2018-07-11T00:47:50.611Z,0
2018-07-11T00:49:00.635Z,0
2018-07-11T00:50:10.688Z,0
2018-07-11T00:51:20.688Z,0
2018-07-11T00:52:30.459Z,0
2018-07-11T00:53:40.470Z,0
2018-07-11T00:54:50.477Z,0
2018-07-11T00:56:00.541Z,0
2018-07-11T00:57:10.546Z,0
2018-07-11T00:58:20.323Z,0
2018-07-11T00:59:30.165Z,0
2018-07-11T01:00:40.167Z,0
2018-07-11T01:01:50.178Z,0
2018-07-11T01:02:59.923Z,0
2018-07-11T01:04:09.673Z,0
2018-07-11T01:05:19.217Z,0
2018-07-11T01:06:29.235Z,0
2018-07-11T01:07:39.244Z,0
2018-07-11T01:08:49.256Z,0
2018-07-11T01:09:59.257Z,0
2018-07-11T01:11:09.288Z,0
2018-07-11T01:12:19.311Z,0
2018-07-11T01:13:29.315Z,0
2018-07-11T01:14:39.325Z,0
2018-07-11T01:15:49.342Z,0
2018-07-11T01:16:59.369Z,0
2018-07-11T01:18:09.366Z,0
2018-07-11T01:19:19.380Z,0
2018-07-11T01:20:28.862Z,0
2018-07-11T01:21:38.886Z,0
2018-07-11T01:22:48.885Z,0
2018-07-11T01:23:58.891Z,0
2018-07-11T01:25:08.892Z,0
2018-07-11T01:26:18.910Z,0
2018-07-11T01:27:28.910Z,0
2018-07-11T01:28:38.457Z,0
2018-07-11T01:29:48.451Z,0
2018-07-11T01:30:58.194Z,0
2018-07-11T01:32:08.187Z,0
2018-07-11T01:33:17.943Z,0
2018-07-11T01:34:27.968Z,0
2018-07-11T01:35:37.463Z,0
2018-07-11T01:36:47.463Z,0
2018-07-11T01:37:57.491Z,0
2018-07-11T01:39:07.505Z,0
2018-07-11T01:40:17.263Z,0
2018-07-11T01:41:27.008Z,0
2018-07-11T01:42:37.010Z,0
2018-07-11T01:43:46.520Z,0
2018-07-11T01:44:56.259Z,0
2018-07-11T01:46:06.272Z,0
2018-07-11T01:47:16.025Z,0
2018-07-11T01:48:26.031Z,0
2018-07-11T01:49:35.792Z,0
2018-07-11T01:50:45.808Z,0
2018-07-11T01:51:55.835Z,0
2018-07-11T01:53:05.844Z,0
2018-07-11T01:54:15.862Z,0
2018-07-11T01:55:25.625Z,0
2018-07-11T01:56:35.677Z,0
2018-07-11T01:57:45.704Z,0
2018-07-11T01:58:55.712Z,0
2018-07-11T02:00:05.715Z,0
2018-07-11T02:01:15.720Z,0
2018-07-11T02:02:25.727Z,0
2018-07-11T02:03:35.739Z,0
2018-07-11T02:04:45.741Z,0
2018-07-11T02:05:55.738Z,0
2018-07-11T02:07:05.216Z,0
2018-07-11T02:08:15.224Z,0
2018-07-11T02:09:24.994Z,0
2018-07-11T02:10:34.740Z,0
2018-07-11T02:11:44.499Z,0
2018-07-11T02:12:54.527Z,0
2018-07-11T02:14:04.300Z,0
2018-07-11T02:15:14.307Z,0
2018-07-11T02:16:24.328Z,0
2018-07-11T02:17:34.350Z,0
2018-07-11T02:18:43.844Z,0
2018-07-11T02:19:53.858Z,0
2018-07-11T02:21:03.340Z,0
2018-07-11T02:22:13.092Z,0
2018-07-11T02:23:23.094Z,0
2018-07-11T02:24:33.097Z,0
2018-07-11T02:25:43.104Z,0
2018-07-11T02:26:52.878Z,0
2018-07-11T02:28:02.628Z,0
2018-07-11T02:29:12.649Z,0
2018-07-11T02:30:22.688Z,0
2018-07-11T02:31:32.732Z,0
2018-07-11T02:32:42.732Z,0
2018-07-11T02:33:52.495Z,0
2018-07-11T02:35:02.501Z,0
2018-07-11T02:36:12.253Z,0
2018-07-11T02:37:22.314Z,0
2018-07-11T02:38:32.325Z,4
2018-07-11T02:39:42.074Z,4
2018-07-11T02:40:51.860Z,0
2018-07-11T02:42:01.857Z,4
2018-07-11T02:43:11.882Z,4
2018-07-11T02:44:21.378Z,4
2018-07-11T02:45:31.393Z,4
2018-07-11T02:46:41.157Z,8
2018-07-11T02:47:50.650Z,4
2018-07-11T02:49:00.646Z,8
2018-07-11T02:50:10.679Z,8
2018-07-11T02:51:20.700Z,8
2018-07-11T02:52:30.697Z,8
2018-07-11T02:53:40.709Z,8
2018-07-11T02:54:50.719Z,12
2018-07-11T02:56:00.785Z,16
2018-07-11T02:57:10.817Z,16
2018-07-11T02:58:20.829Z,16
2018-07-11T02:59:30.591Z,20
2018-07-11T03:00:40.612Z,24
2018-07-11T03:01:50.607Z,28
2018-07-11T03:03:00.642Z,32
2018-07-11T03:35:55.726Z,236
2018-07-11T03:37:05.456Z,252
2018-07-11T03:38:15.491Z,268
2018-07-11T03:39:25.544Z,276
2018-07-11T03:40:35.548Z,292
2018-07-11T03:41:45.303Z,304
2018-07-11T03:42:55.325Z,328
2018-07-11T03:44:05.077Z,348
2018-07-11T03:45:15.076Z,376
2018-07-11T03:46:25.076Z,408
2018-07-11T03:47:35.129Z,436
2018-07-11T03:48:45.139Z,476
2018-07-11T03:49:54.920Z,520
2018-07-11T03:51:04.926Z,560
2018-07-11T03:52:14.935Z,596
2018-07-11T03:53:24.945Z,624
2018-07-11T03:54:34.948Z,652
2018-07-11T03:55:44.969Z,680
2018-07-11T03:56:54.966Z,704
2018-07-11T03:58:04.962Z,712
2018-07-11T03:59:14.975Z,724
2018-07-11T04:00:24.743Z,736
2018-07-11T04:01:34.769Z,748
2018-07-11T04:02:44.781Z,748
2018-07-11T04:03:54.798Z,768
2018-07-11T04:05:04.991Z,796
2018-07-11T04:06:14.759Z,824
2018-07-11T04:07:24.762Z,852
2018-07-11T04:08:34.504Z,888
2018-07-11T04:09:44.268Z,932
2018-07-11T04:10:54.276Z,976
2018-07-11T04:12:04.275Z,1004
2018-07-11T04:13:14.296Z,1028
2018-07-11T04:14:24.302Z,1044
2018-07-11T04:15:34.310Z,1056
2018-07-11T04:16:44.330Z,1072
2018-07-11T04:17:54.348Z,1076
2018-07-11T04:19:04.178Z,1064
2018-07-11T04:20:13.997Z,1060
2018-07-11T04:21:23.477Z,1036
2018-07-11T04:22:33.488Z,1008
2018-07-11T04:23:43.519Z,972
2018-07-11T04:24:53.266Z,936
2018-07-11T04:26:03.279Z,912
2018-07-11T04:27:13.285Z,900
2018-07-11T04:28:23.281Z,892
2018-07-11T04:29:33.036Z,892
2018-07-11T04:30:43.047Z,896
2018-07-11T04:31:52.790Z,904
2018-07-11T04:33:02.799Z,916
2018-07-11T04:34:12.833Z,928
2018-07-11T04:35:22.843Z,936
2018-07-11T04:36:32.859Z,952
2018-07-11T04:37:42.860Z,976
2018-07-11T04:38:52.864Z,1032
2018-07-11T04:40:02.910Z,1084
2018-07-11T04:41:12.912Z,1132
2018-07-11T04:42:22.947Z,1184
2018-07-11T04:43:33.043Z,1240
2018-07-11T04:44:42.552Z,1308
2018-07-11T04:45:52.558Z,1388
2018-07-11T04:47:02.575Z,1476
2018-07-11T04:48:12.589Z,2560
2018-07-11T04:49:22.342Z,1648
2018-07-11T04:50:32.081Z,1636
2018-07-11T04:51:41.846Z,1648
2018-07-11T04:52:51.955Z,1616
2018-07-11T04:54:01.952Z,1540
2018-07-11T04:55:12.134Z,1464
2018-07-11T04:56:22.129Z,1344
2018-07-11T04:57:32.133Z,1240
2018-07-11T04:58:42.182Z,1152
2018-07-11T04:59:52.270Z,1076
2018-07-11T05:01:02.331Z,992
2018-07-11T05:02:12.333Z,976
2018-07-11T05:03:22.344Z,1028
2018-07-11T05:04:32.347Z,1108
2018-07-11T05:05:41.845Z,1188
2018-07-11T05:06:51.870Z,1252
2018-07-11T05:08:01.371Z,1292
2018-07-11T05:09:11.113Z,1344
2018-07-11T05:10:20.868Z,1372
2018-07-11T05:11:30.877Z,1392
2018-07-11T05:12:40.630Z,1424
2018-07-11T05:13:50.628Z,1504
2018-07-11T05:15:00.384Z,1620
2018-07-11T05:16:10.540Z,1720
2018-07-11T05:17:20.678Z,1872
2018-07-11T05:18:30.450Z,2092
2018-07-11T05:19:40.454Z,2140
2018-07-11T05:20:50.265Z,2036
2018-07-11T05:22:00.056Z,1912
2018-07-11T05:23:09.838Z,1788
2018-07-11T05:24:19.867Z,1740
2018-07-11T05:25:29.876Z,1688
2018-07-11T05:26:39.369Z,1572
2018-07-11T05:27:49.774Z,1480
2018-07-11T05:28:59.821Z,1552
2018-07-11T05:30:09.564Z,1620
2018-07-11T05:31:19.560Z,1576
2018-07-11T05:32:29.574Z,1468
2018-07-11T05:33:39.579Z,1380
2018-07-11T05:34:49.593Z,1300
2018-07-11T05:35:59.079Z,1284
2018-07-11T05:37:08.848Z,1292
2018-07-11T05:38:18.902Z,1328
2018-07-11T05:39:28.932Z,1368
2018-07-11T05:40:38.934Z,1408
2018-07-11T05:41:48.944Z,1444
2018-07-11T05:42:58.941Z,1504
2018-07-11T05:44:08.933Z,1584
2018-07-11T05:45:18.947Z,1648
2018-07-11T05:46:28.707Z,1684
2018-07-11T05:47:38.720Z,1736
2018-07-11T05:48:48.741Z,1788
2018-07-11T05:49:58.793Z,1840
2018-07-11T05:51:08.820Z,1900
2018-07-11T05:52:18.715Z,1956
2018-07-11T05:53:28.457Z,1988
2018-07-11T05:54:38.227Z,2028
2018-07-11T05:55:48.473Z,2064
2018-07-11T05:56:58.250Z,2088
2018-07-11T05:58:07.767Z,2128
2018-07-11T05:59:17.003Z,2180
2018-07-11T06:00:26.752Z,2232
2018-07-11T06:01:36.890Z,2304
2018-07-11T06:02:47.274Z,2384
2018-07-11T06:03:57.294Z,2508
2018-07-11T06:05:07.295Z,2640
2018-07-11T06:06:16.791Z,2772
2018-07-11T06:07:26.808Z,2872
2018-07-11T06:08:36.808Z,2988
2018-07-11T06:09:46.567Z,3060
2018-07-11T06:10:56.582Z,3084
2018-07-11T06:12:06.605Z,3096
2018-07-11T06:13:16.514Z,3088
2018-07-11T06:14:26.595Z,3072
2018-07-11T06:15:36.592Z,3100
2018-07-11T06:16:46.095Z,3308
2018-07-11T06:17:55.841Z,3364
2018-07-11T06:19:05.590Z,3440
2018-07-11T06:20:15.773Z,3636
2018-07-11T06:21:25.286Z,3920
2018-07-11T06:22:35.308Z,3892
2018-07-11T06:23:45.070Z,3716
2018-07-11T06:24:54.815Z,3564
2018-07-11T06:26:04.317Z,3496
2018-07-11T06:27:14.057Z,3520
2018-07-11T06:28:24.070Z,3620
2018-07-11T06:29:34.098Z,3676
2018-07-11T06:30:43.660Z,3780
2018-07-11T06:31:53.673Z,3936
2018-07-11T06:33:03.688Z,3904
2018-07-11T06:34:13.703Z,3876
2018-07-11T06:35:23.740Z,3780
2018-07-11T06:36:33.753Z,3720
2018-07-11T06:37:43.770Z,3672
2018-07-11T06:38:53.814Z,3600
2018-07-11T06:40:03.812Z,3512
2018-07-11T06:41:13.824Z,3476
2018-07-11T06:42:23.837Z,3460
2018-07-11T06:43:33.858Z,3496
2018-07-11T06:44:43.615Z,3552
2018-07-11T06:45:53.362Z,3612
2018-07-11T06:47:03.369Z,3672
2018-07-11T06:48:13.374Z,3720
2018-07-11T06:49:23.386Z,3768
2018-07-11T06:50:33.393Z,3820
2018-07-11T06:51:43.161Z,3888
2018-07-11T06:52:52.940Z,3992
2018-07-11T06:54:02.945Z,4140
2018-07-11T06:55:12.956Z,4336
2018-07-11T06:56:22.711Z,4592
2018-07-11T06:57:32.860Z,5296
2018-07-11T06:58:42.987Z,5108
2018-07-11T06:59:52.736Z,5044
2018-07-11T07:01:02.527Z,5012
2018-07-11T07:02:12.290Z,5040
2018-07-11T07:03:22.353Z,5708
2018-07-11T07:04:32.390Z,5264
2018-07-11T07:05:42.393Z,5208
2018-07-11T07:06:52.177Z,5308
2018-07-11T07:08:01.432Z,5452
2018-07-11T07:09:11.197Z,5536
2018-07-11T07:10:21.224Z,5784
2018-07-11T07:11:30.995Z,5972
2018-07-11T07:12:40.996Z,6008
2018-07-11T07:13:51.022Z,5928
2018-07-11T07:15:00.794Z,5796
2018-07-11T07:16:10.812Z,5936
2018-07-11T07:17:20.584Z,5668
2018-07-11T07:18:30.598Z,5480
2018-07-11T07:19:40.357Z,5564
2018-07-11T07:20:50.365Z,5676
2018-07-11T07:22:00.367Z,5740
2018-07-11T07:23:10.380Z,5840
2018-07-11T07:24:20.133Z,6080
2018-07-11T07:25:30.154Z,6116
2018-07-11T07:26:39.922Z,6068
2018-07-11T07:27:49.985Z,5972
2018-07-11T07:28:59.815Z,6256
2018-07-11T07:30:09.868Z,6188
2018-07-11T07:31:19.621Z,5896
2018-07-11T07:32:29.650Z,5420
2018-07-11T07:33:39.644Z,5356
2018-07-11T07:34:49.654Z,5380
2018-07-11T07:35:59.795Z,5568
2018-07-11T07:37:09.545Z,5808
2018-07-11T07:38:19.348Z,6096
2018-07-11T07:39:29.371Z,6348
2018-07-11T07:40:39.130Z,6336
2018-07-11T07:41:49.159Z,6344
2018-07-11T07:42:59.172Z,6412
2018-07-11T07:44:09.182Z,6316
2018-07-11T07:45:19.220Z,6204
2018-07-11T07:46:29.242Z,6052
2018-07-11T07:47:39.252Z,5896
2018-07-11T07:48:49.018Z,5840
2018-07-11T07:49:59.025Z,5828
2018-07-11T07:51:09.064Z,5932
2018-07-11T07:52:19.067Z,6112
2018-07-11T07:53:28.823Z,6564
2018-07-11T07:54:38.569Z,6500
2018-07-11T07:55:48.576Z,6800
2018-07-11T07:56:58.092Z,6604
2018-07-11T07:58:08.109Z,6600
2018-07-11T07:59:17.850Z,6636
2018-07-11T08:00:28.013Z,6552
2018-07-11T08:01:38.157Z,6528
2018-07-11T08:02:48.169Z,6488
2018-07-11T08:03:57.923Z,6440
2018-07-11T08:05:07.939Z,6524
2018-07-11T08:06:17.946Z,6944
2018-07-11T08:07:27.718Z,6796
2018-07-11T08:08:37.790Z,6764
2018-07-11T08:09:47.814Z,7924
2018-07-11T08:10:57.563Z,6784
2018-07-11T08:12:07.584Z,6748
2018-07-11T08:13:17.603Z,7128
2018-07-11T08:14:27.373Z,8588
2018-07-11T08:15:37.117Z,6864
2018-07-11T08:16:47.126Z,7588
2018-07-11T08:17:57.134Z,7220
2018-07-11T08:19:07.145Z,6892
2018-07-11T08:20:16.911Z,6860
2018-07-11T08:21:27.216Z,6728
2018-07-11T08:22:37.339Z,6696
2018-07-11T08:23:47.098Z,6456
2018-07-11T08:24:57.103Z,6356
2018-07-11T08:26:07.134Z,6336
2018-07-11T08:27:17.532Z,6148
2018-07-11T08:28:27.622Z,6156
2018-07-11T08:29:37.636Z,6264
2018-07-11T08:30:47.153Z,6200
2018-07-11T08:31:57.170Z,6232
2018-07-11T08:33:07.190Z,6228
2018-07-11T08:34:16.943Z,6404
2018-07-11T08:35:26.704Z,7896
2018-07-11T08:36:36.721Z,6252
2018-07-11T08:37:46.482Z,6280
2018-07-11T08:38:56.525Z,6368
2018-07-11T08:40:06.288Z,6516
2018-07-11T08:41:16.361Z,6704
2018-07-11T08:42:26.374Z,6976
2018-07-11T08:43:36.366Z,7208
2018-07-11T08:44:46.177Z,7340
2018-07-11T08:45:56.195Z,7416
2018-07-11T08:47:06.216Z,7456
2018-07-11T08:48:16.737Z,7420
2018-07-11T08:49:26.215Z,7296
2018-07-11T08:50:35.716Z,7128
2018-07-11T08:51:45.729Z,6920
2018-07-11T08:52:55.759Z,6744
2018-07-11T08:54:05.904Z,6532
2018-07-11T08:55:16.314Z,6356
2018-07-11T08:56:26.334Z,6180
2018-07-11T08:57:36.360Z,6060
2018-07-11T08:58:46.382Z,5936
2018-07-11T08:59:56.381Z,5876
2018-07-11T09:01:06.147Z,5804
2018-07-11T09:02:16.262Z,5700
2018-07-11T09:03:26.289Z,5564
2018-07-11T09:04:36.317Z,5412
2018-07-11T09:05:46.064Z,5384
2018-07-11T09:06:55.846Z,5432
2018-07-11T09:08:05.722Z,5468
2018-07-11T09:09:15.483Z,5516
2018-07-11T09:10:25.274Z,5520
2018-07-11T09:11:35.074Z,5492
2018-07-11T09:12:45.084Z,5508
2018-07-11T09:13:54.885Z,5568
2018-07-11T09:15:04.908Z,5664
2018-07-11T09:16:14.919Z,5788
2018-07-11T09:17:24.943Z,5988
2018-07-11T09:18:34.961Z,6160
2018-07-11T09:19:44.981Z,6304
2018-07-11T09:20:54.731Z,6400
2018-07-11T09:22:04.231Z,6416
2018-07-11T09:23:14.262Z,6416
2018-07-11T09:24:24.559Z,6412
2018-07-11T09:25:34.428Z,6400
2018-07-11T09:26:44.455Z,6452
2018-07-11T09:27:54.460Z,6472
2018-07-11T09:29:04.221Z,6500
2018-07-11T09:30:14.225Z,6484
2018-07-11T09:31:24.482Z,6428
2018-07-11T09:32:34.235Z,6356
2018-07-11T09:33:44.250Z,6276
2018-07-11T09:34:53.996Z,6184
2018-07-11T09:36:04.022Z,6100
2018-07-11T09:37:14.050Z,6060
2018-07-11T09:38:23.792Z,6044
2018-07-11T09:39:33.306Z,6088
2018-07-11T09:40:43.328Z,6104
2018-07-11T09:41:53.341Z,6112
2018-07-11T09:43:03.358Z,6072
2018-07-11T09:44:13.372Z,6016
2018-07-11T09:45:23.396Z,5976
2018-07-11T09:46:33.490Z,5972
2018-07-11T09:47:42.994Z,5992
2018-07-11T09:48:52.787Z,6016
2018-07-11T09:50:02.300Z,6036
2018-07-11T09:51:12.309Z,6024
2018-07-11T09:52:22.761Z,5964
2018-07-11T09:53:32.780Z,5840
2018-07-11T09:54:42.554Z,5636
2018-07-11T09:55:52.571Z,5560
2018-07-11T09:57:02.581Z,5572
2018-07-11T09:58:12.338Z,5540
2018-07-11T09:59:22.350Z,5536
2018-07-11T10:00:32.416Z,5524
2018-07-11T10:01:42.187Z,5548
2018-07-11T10:02:51.694Z,5656
2018-07-11T10:04:01.451Z,5696
2018-07-11T10:05:11.579Z,5684
2018-07-11T10:06:21.415Z,5596
2018-07-11T10:07:31.193Z,5588
2018-07-11T10:08:41.192Z,5652
2018-07-11T10:09:51.211Z,5648
2018-07-11T10:11:01.227Z,5336
2018-07-11T10:12:10.749Z,5088
2018-07-11T10:13:20.758Z,4956
2018-07-11T10:14:30.532Z,4916
2018-07-11T10:15:40.558Z,4960
2018-07-11T10:16:50.573Z,5012
2018-07-11T10:18:00.621Z,5104
2018-07-11T10:19:10.636Z,4984
2018-07-11T10:20:20.655Z,4900
2018-07-11T10:21:30.697Z,4852
2018-07-11T10:22:40.529Z,4988
2018-07-11T10:23:50.569Z,5128
2018-07-11T10:25:00.629Z,5200
2018-07-11T10:26:10.669Z,5280
2018-07-11T10:27:20.672Z,5352
2018-07-11T10:28:30.705Z,5420
2018-07-11T10:29:40.729Z,5392
2018-07-11T10:30:50.755Z,5384
2018-07-11T10:32:00.841Z,5436
2018-07-11T10:33:10.868Z,5508
2018-07-11T10:34:20.896Z,5636
2018-07-11T10:35:30.932Z,5780
2018-07-11T10:36:40.731Z,5872
2018-07-11T10:37:50.736Z,6012
2018-07-11T10:39:00.799Z,6052
2018-07-11T10:40:10.945Z,5960
2018-07-11T10:41:20.958Z,6056
2018-07-11T10:42:30.968Z,6232
2018-07-11T10:43:40.985Z,6444
2018-07-11T10:44:50.800Z,6840
2018-07-11T10:46:00.890Z,6708
2018-07-11T10:47:10.916Z,7092
2018-07-11T10:48:20.925Z,6740
2018-07-11T10:49:30.673Z,6972
2018-07-11T10:50:41.000Z,7320
2018-07-11T10:51:51.018Z,7424
2018-07-11T10:53:01.037Z,7604
2018-07-11T10:54:11.059Z,7668
2018-07-11T10:55:21.068Z,7916
2018-07-11T10:56:30.824Z,8044
2018-07-11T10:57:41.270Z,8296
2018-07-11T10:58:51.051Z,8372
2018-07-11T11:00:01.084Z,8444
2018-07-11T11:01:13.414Z,8236
2018-07-11T11:02:23.721Z,8164
2018-07-11T11:03:33.483Z,8008
2018-07-11T11:04:43.577Z,7652
2018-07-11T11:05:53.668Z,7280
2018-07-11T11:07:03.471Z,6872
2018-07-11T11:08:13.418Z,6512
2018-07-11T11:09:23.454Z,6156
2018-07-11T11:10:33.232Z,5704
2018-07-11T11:11:43.294Z,5492
2018-07-11T11:12:53.357Z,5760
2018-07-11T11:14:03.119Z,5912
2018-07-11T11:15:13.135Z,5936
2018-07-11T11:16:23.136Z,6136
2018-07-11T11:17:33.166Z,6104
2018-07-11T11:18:43.192Z,5844
2018-07-11T11:19:53.210Z,5848
2018-07-11T11:21:03.235Z,6060
2018-07-11T11:22:12.748Z,6444
2018-07-11T11:23:22.509Z,6836
2018-07-11T11:24:32.541Z,7220
2018-07-11T11:25:42.778Z,7204
2018-07-11T11:26:53.067Z,10072
2018-07-11T11:28:02.821Z,7708
2018-07-11T11:29:12.601Z,8288
2018-07-11T11:30:22.375Z,8312
2018-07-11T11:31:32.405Z,8148
2018-07-11T11:32:42.183Z,8520
2018-07-11T11:33:51.956Z,8472
2018-07-11T11:35:01.707Z,8496
2018-07-11T11:36:11.480Z,8868
2018-07-11T11:37:21.516Z,10044
2018-07-11T11:38:31.015Z,8984
2018-07-11T11:39:41.035Z,9032
2018-07-11T11:40:51.053Z,7968
2018-07-11T11:42:01.406Z,7900
2018-07-11T11:43:11.375Z,7864
2018-07-11T11:44:21.384Z,7552
2018-07-11T11:45:31.398Z,7356
2018-07-11T11:46:40.889Z,7216
2018-07-11T11:47:50.648Z,7280
2018-07-11T11:49:00.678Z,7380
2018-07-11T11:50:10.696Z,7492
2018-07-11T11:51:20.490Z,7848
2018-07-11T11:52:30.487Z,8092
2018-07-11T11:53:40.507Z,9040
2018-07-11T11:54:50.531Z,9212
2018-07-11T11:56:00.584Z,8128
2018-07-11T11:57:10.638Z,7940
2018-07-11T11:58:20.656Z,7908
2018-07-11T11:59:30.677Z,7948
2018-07-11T12:00:40.701Z,7896
2018-07-11T12:01:50.809Z,7844
2018-07-11T12:03:00.608Z,7748
2018-07-11T12:04:10.375Z,7304
2018-07-11T12:05:20.182Z,7204
2018-07-11T12:06:30.197Z,7048
2018-07-11T12:07:40.225Z,6916
2018-07-11T12:08:50.245Z,6792
2018-07-11T12:10:00.253Z,6648
2018-07-11T12:11:10.370Z,6540
2018-07-11T12:12:20.449Z,6436
2018-07-11T12:13:30.517Z,6292
2018-07-11T12:14:40.528Z,6120
2018-07-11T12:15:50.545Z,5980
2018-07-11T12:17:00.563Z,5864
2018-07-11T12:18:10.595Z,5748
2018-07-11T12:19:20.618Z,5688
2018-07-11T12:20:30.402Z,5748
2018-07-11T12:21:40.741Z,6136
2018-07-11T12:22:50.751Z,6280
2018-07-11T12:24:00.515Z,6736
2018-07-11T12:25:10.531Z,6800
2018-07-11T12:26:20.319Z,6032
2018-07-11T12:27:30.340Z,6048
2018-07-11T12:28:40.372Z,6192
2018-07-11T12:29:50.430Z,6296
2018-07-11T12:31:00.482Z,5840
2018-07-11T12:32:10.515Z,5400
2018-07-11T12:33:20.520Z,5172
2018-07-11T12:34:30.265Z,5036
2018-07-11T12:35:40.311Z,4916
2018-07-11T12:36:50.343Z,4788
2018-07-11T12:38:00.362Z,4824
2018-07-11T12:39:10.418Z,4892
2018-07-11T12:40:20.236Z,5216
2018-07-11T12:41:30.238Z,5540
2018-07-11T12:42:40.009Z,5828
2018-07-11T12:43:49.752Z,6192
2018-07-11T12:44:59.523Z,6712
2018-07-11T12:46:09.547Z,7240
2018-07-11T12:47:19.614Z,7580
2018-07-11T12:48:29.363Z,7852
2018-07-11T12:49:39.365Z,7988
2018-07-11T12:50:49.409Z,8192
2018-07-11T12:51:59.468Z,9340
2018-07-11T12:53:09.500Z,8672
2018-07-11T12:54:19.251Z,8824
2018-07-11T12:55:29.005Z,9116
2018-07-11T12:56:39.026Z,8720
2018-07-11T12:57:48.784Z,8752
2018-07-11T12:58:58.829Z,8652
2018-07-11T13:00:08.862Z,8708
2018-07-11T13:01:18.633Z,7984
2018-07-11T13:02:28.408Z,7756
2018-07-11T13:03:38.432Z,7608
2018-07-11T13:04:48.467Z,7508
2018-07-11T13:05:58.273Z,7400
2018-07-11T13:07:08.295Z,7356
2018-07-11T13:08:18.302Z,7292
2018-07-11T13:09:27.800Z,7160
2018-07-11T13:10:37.590Z,7216
2018-07-11T13:11:47.604Z,7564
2018-07-11T13:12:57.648Z,7472
2018-07-11T13:14:07.669Z,7384
2018-07-11T13:15:17.179Z,7880
2018-07-11T13:16:27.692Z,7848
2018-07-11T13:17:37.754Z,8576
2018-07-11T13:18:47.759Z,8120
2018-07-11T13:19:57.524Z,6884
2018-07-11T13:21:07.550Z,6256
2018-07-11T13:22:17.335Z,6168
2018-07-11T13:23:27.364Z,7124
2018-07-11T13:24:37.430Z,7144
2018-07-11T13:25:47.575Z,6220
2018-07-11T13:26:57.328Z,6056
2018-07-11T13:28:07.113Z,6092
2018-07-11T13:29:17.162Z,6268
2018-07-11T13:30:27.183Z,6420
2018-07-11T13:31:37.222Z,6600
2018-07-11T13:32:47.252Z,6768
2018-07-11T13:33:57.279Z,6748
2018-07-11T13:35:07.289Z,6608
2018-07-11T13:36:17.305Z,6540
2018-07-11T13:37:27.084Z,6528
2018-07-11T13:38:37.158Z,6524
2018-07-11T13:39:46.934Z,6568
2018-07-11T13:40:56.965Z,6576
2018-07-11T13:42:06.988Z,6620
2018-07-11T13:43:17.007Z,6720
2018-07-11T13:44:27.037Z,6980
2018-07-11T13:45:36.800Z,7060
2018-07-11T13:46:46.297Z,7104
2018-07-11T13:47:56.345Z,7348
2018-07-11T13:49:06.362Z,7212
2018-07-11T13:50:16.390Z,7656
2018-07-11T13:51:26.399Z,7216
2018-07-11T13:52:36.416Z,6964
2018-07-11T13:53:45.672Z,6784
2018-07-11T13:54:55.676Z,6636
2018-07-11T13:56:04.696Z,6612
2018-07-11T13:57:13.972Z,6752
2018-07-11T13:58:23.485Z,7004
2018-07-11T13:59:33.495Z,7208
2018-07-11T14:00:43.250Z,6904
2018-07-11T14:01:53.289Z,6828
2018-07-11T14:03:02.793Z,6828
2018-07-11T14:04:12.809Z,7384
2018-07-11T14:05:22.877Z,6572
2018-07-11T14:06:32.894Z,6272
2018-07-11T14:07:43.131Z,6124
2018-07-11T14:08:53.158Z,6068
2018-07-11T14:10:03.170Z,5956
2018-07-11T14:11:12.927Z,6456
2018-07-11T14:12:22.686Z,5744
2018-07-11T14:13:32.736Z,5412
2018-07-11T14:14:42.760Z,5100
2018-07-11T14:15:52.511Z,4844
2018-07-11T14:17:02.563Z,4612
2018-07-11T14:18:12.326Z,4520
2018-07-11T14:19:22.359Z,4400
2018-07-11T14:20:32.591Z,4256
2018-07-11T14:21:42.645Z,4148
2018-07-11T14:22:52.412Z,4076
2018-07-11T14:24:02.433Z,3964
2018-07-11T14:25:12.485Z,3808
2018-07-11T14:26:22.508Z,3752
2018-07-11T14:27:32.542Z,3736
2018-07-11T14:28:42.606Z,3724
2018-07-11T14:29:52.778Z,3744
2018-07-11T14:31:02.787Z,3764
2018-07-11T14:32:12.833Z,3764
2018-07-11T14:33:22.865Z,3732
2018-07-11T14:34:32.648Z,3740
2018-07-11T14:35:42.159Z,3800
2018-07-11T14:36:52.205Z,3868
2018-07-11T14:38:02.227Z,3912
2018-07-11T14:39:12.308Z,3936
2018-07-11T14:40:22.323Z,3964
2018-07-11T14:41:32.347Z,3956
2018-07-11T14:42:42.359Z,3840
2018-07-11T14:43:52.365Z,3684
2018-07-11T14:45:02.128Z,3556
2018-07-11T14:46:11.944Z,3460
2018-07-11T14:47:21.977Z,3384
2018-07-11T14:48:31.994Z,3280
2018-07-11T14:49:41.500Z,3112
2018-07-11T14:50:51.523Z,2904
2018-07-11T14:52:01.539Z,2672
2018-07-11T14:53:11.319Z,2424
2018-07-11T14:54:21.317Z,2176
2018-07-11T14:55:31.327Z,1976
2018-07-11T14:56:41.346Z,1832
2018-07-11T14:57:51.381Z,1732
2018-07-11T14:59:01.125Z,1664
2018-07-11T15:00:10.881Z,1628
2018-07-11T15:01:20.958Z,1620
2018-07-11T15:02:30.992Z,1620
2018-07-11T15:03:41.054Z,1628
2018-07-11T15:04:50.820Z,1636
2018-07-11T15:06:00.585Z,1628
2018-07-11T15:07:10.600Z,1596
2018-07-11T15:08:20.814Z,1544
2018-07-11T15:09:32.220Z,1492
2018-07-11T15:10:42.266Z,1464
2018-07-11T15:11:52.038Z,1464
2018-07-11T15:13:02.057Z,1460
2018-07-11T15:14:12.076Z,1472
2018-07-11T15:15:22.105Z,1508
2018-07-11T15:16:32.139Z,1576
2018-07-11T15:17:42.162Z,1656
2018-07-11T15:18:52.182Z,1716
2018-07-11T15:20:01.945Z,1712
2018-07-11T15:21:11.715Z,1652
2018-07-11T15:22:21.732Z,1600
2018-07-11T15:23:31.746Z,1584
2018-07-11T15:24:41.516Z,1608
2018-07-11T15:25:51.274Z,1624
2018-07-11T15:27:01.039Z,1652
2018-07-11T15:28:11.063Z,1700
2018-07-11T15:29:21.075Z,1756
2018-07-11T15:30:31.134Z,1808
2018-07-11T15:31:41.147Z,1796
2018-07-11T15:32:51.317Z,1752
2018-07-11T15:34:01.343Z,1680
2018-07-11T15:35:11.867Z,1580
2018-07-11T15:36:21.630Z,1472
2018-07-11T15:37:31.646Z,1384
2018-07-11T15:38:41.417Z,1312
2018-07-11T15:39:51.187Z,1264
2018-07-11T15:41:01.207Z,1248
2018-07-11T15:42:11.262Z,1244
2018-07-11T15:43:21.033Z,1248
2018-07-11T15:44:31.059Z,1240
2018-07-11T15:45:41.095Z,1212
2018-07-11T15:46:51.150Z,1180
2018-07-11T15:48:01.161Z,1108
2018-07-11T15:49:11.172Z,1048
2018-07-11T15:50:20.929Z,1016
2018-07-11T15:51:30.938Z,1020
2018-07-11T15:52:40.700Z,1060
2018-07-11T15:53:50.208Z,1140
2018-07-11T15:55:00.237Z,1260
2018-07-11T15:56:10.245Z,1408
2018-07-11T15:57:20.260Z,1576
2018-07-11T15:58:29.746Z,1732
2018-07-11T15:59:40.517Z,1856
2018-07-11T16:00:50.373Z,1956
2018-07-11T16:02:00.398Z,2088
2018-07-11T16:03:10.414Z,2232
2018-07-11T16:04:20.176Z,2344
2018-07-11T16:05:31.114Z,2448
2018-07-11T16:06:41.466Z,2516
2018-07-11T16:07:51.485Z,2540
2018-07-11T16:09:01.264Z,2488
2018-07-11T16:10:11.296Z,2392
2018-07-11T16:11:21.344Z,2256
2018-07-11T16:12:31.387Z,2092
2018-07-11T16:13:41.174Z,1944
2018-07-11T16:14:51.188Z,1844
2018-07-11T16:16:00.944Z,1760
2018-07-11T16:17:10.981Z,1652
2018-07-11T16:18:21.013Z,1544
2018-07-11T16:19:31.046Z,1424
2018-07-11T16:20:41.124Z,1336
2018-07-11T16:21:50.853Z,1248